Time;durP1;ratioP1;P1;durP2;ratioP2;P2;SDS_P1;SDS_P2;PMS_P1;PMS_P2;Temp;Humidity;BMP_temperature;BMP_pressure;BME280_temperature;BME280_humidity;BME280_pressure;Samples;Min_cycle;Max_cycle;Signal;HPM_P1;HPM_P2
2023/09/16 00:01:49;;;;;;;5.90;4.68;;;19.40;94.30;;;;;;5054841;28;20025;-68
2023/09/16 00:04:14;;;;;;;6.45;4.53;;;19.30;94.10;;;;;;5055016;28;20033;-68
2023/09/16 00:06:40;;;;;;;6.13;5.30;;;19.30;94.10;;;;;;5055133;28;20100;-67
2023/09/16 00:09:05;;;;;;;5.05;4.55;;;19.30;93.90;;;;;;5054681;28;20025;-68
2023/09/16 00:11:32;;;;;;;6.00;4.63;;;19.40;93.90;;;;;;5055064;28;20021;-68
2023/09/16 00:13:58;;;;;;;5.45;4.95;;;19.40;93.80;;;;;;5054453;28;20131;-68
2023/09/16 00:16:24;;;;;;;5.80;5.20;;;19.40;93.80;;;;;;5054951;28;20493;-67
2023/09/16 00:18:50;;;;;;;8.50;5.43;;;19.30;94.10;;;;;;5054555;28;20112;-68
2023/09/16 00:21:16;;;;;;;6.38;5.10;;;19.30;94.20;;;;;;5054882;28;20060;-68
2023/09/16 00:23:42;;;;;;;7.47;5.13;;;19.30;94.00;;;;;;5051447;28;20083;-69
2023/09/16 00:26:07;;;;;;;7.80;5.38;;;19.40;93.70;;;;;;5054347;28;20029;-69
2023/09/16 00:28:35;;;;;;;5.53;4.97;;;19.30;93.70;;;;;;5054892;28;20028;-68
2023/09/16 00:31:01;;;;;;;7.40;5.50;;;19.40;93.70;;;;;;5054233;28;20029;-69
2023/09/16 00:33:28;;;;;;;6.32;5.40;;;19.30;93.90;;;;;;5054621;28;20033;-67
2023/09/16 00:35:53;;;;;;;6.68;5.10;;;19.30;93.80;;;;;;5054254;28;20060;-69
2023/09/16 00:38:19;;;;;;;7.00;6.07;;;19.20;94.10;;;;;;5054531;28;20499;-69
2023/09/16 00:40:44;;;;;;;5.65;5.15;;;19.20;94.00;;;;;;5054246;28;20031;-68
2023/09/16 00:43:10;;;;;;;5.90;5.20;;;19.20;94.40;;;;;;5053785;28;20037;-69
2023/09/16 00:45:36;;;;;;;7.72;5.13;;;19.20;94.40;;;;;;5054207;28;20083;-68
2023/09/16 00:48:01;;;;;;;5.90;5.30;;;19.10;94.50;;;;;;5036179;28;20025;-68
2023/09/16 00:50:27;;;;;;;5.82;5.20;;;19.10;94.80;;;;;;5036432;28;20107;-68
2023/09/16 00:52:56;;;;;;;10.38;5.90;;;19.10;94.90;;;;;;5053844;28;20083;-68
2023/09/16 00:55:22;;;;;;;5.95;5.35;;;19.00;95.20;;;;;;5053557;28;20079;-67
2023/09/16 00:57:50;;;;;;;7.15;5.50;;;18.90;95.30;;;;;;5054319;28;20374;-68
2023/09/16 01:00:16;;;;;;;7.13;5.70;;;18.90;95.50;;;;;;5053910;28;20103;-68
2023/09/16 01:02:45;;;;;;;6.28;5.47;;;18.90;95.80;;;;;;5054108;28;20109;-68
2023/09/16 01:05:17;;;;;;;8.68;5.78;;;18.80;95.80;;;;;;5053298;28;20108;-68
2023/09/16 01:07:46;;;;;;;7.65;5.88;;;18.80;95.80;;;;;;5054083;28;20021;-67
2023/09/16 01:10:15;;;;;;;6.47;5.65;;;18.70;95.90;;;;;;5053550;28;20210;-67
2023/09/16 01:12:42;;;;;;;9.02;6.35;;;18.70;96.00;;;;;;5053722;28;20496;-68
2023/09/16 01:15:09;;;;;;;6.80;6.10;;;18.70;96.10;;;;;;5053716;28;20060;-68
2023/09/16 01:17:39;;;;;;;7.07;5.97;;;18.70;96.30;;;;;;5054059;28;20025;-68
2023/09/16 01:20:15;;;;;;;7.88;6.57;;;18.60;96.60;;;;;;5053189;28;20386;-68
2023/09/16 01:22:45;;;;;;;7.82;6.40;;;18.60;96.90;;;;;;5053786;28;20040;-68
2023/09/16 01:25:19;;;;;;;8.48;6.07;;;18.50;96.80;;;;;;5053243;28;20025;-68
2023/09/16 01:27:45;;;;;;;9.82;6.28;;;18.50;97.30;;;;;;5053673;28;20028;-67
2023/09/16 01:30:12;;;;;;;9.65;7.43;;;18.50;97.20;;;;;;5052864;28;20029;-67
2023/09/16 01:32:54;;;;;;;8.10;6.55;;;18.40;97.10;;;;;;5053407;28;20041;-68
2023/09/16 01:35:21;;;;;;;7.90;6.82;;;18.40;97.10;;;;;;5053611;28;20025;-67
2023/09/16 01:37:49;;;;;;;8.48;6.78;;;18.40;97.00;;;;;;5053762;28;20466;-66
2023/09/16 01:40:17;;;;;;;8.43;6.68;;;18.30;96.90;;;;;;5049257;28;20025;-69
2023/09/16 01:42:43;;;;;;;10.23;7.20;;;18.30;96.70;;;;;;5053425;28;20483;-69
2023/09/16 01:45:10;;;;;;;9.25;6.53;;;18.30;96.80;;;;;;5052880;28;20032;-69
2023/09/16 01:47:36;;;;;;;11.43;7.18;;;18.30;96.80;;;;;;5053242;28;20369;-68
2023/09/16 01:50:02;;;;;;;8.50;7.40;;;18.30;96.90;;;;;;5052629;28;20099;-69
2023/09/16 01:52:28;;;;;;;8.02;6.95;;;18.30;96.70;;;;;;5051573;28;20025;-69
2023/09/16 01:54:54;;;;;;;10.77;7.30;;;18.30;96.60;;;;;;5052817;28;20049;-68
2023/09/16 01:57:19;;;;;;;8.55;7.65;;;18.30;96.70;;;;;;5052394;28;20056;-69
2023/09/16 01:59:45;;;;;;;9.32;7.25;;;18.20;96.90;;;;;;5052845;28;20021;-68
2023/09/16 02:02:11;;;;;;;8.60;7.18;;;18.20;97.00;;;;;;5052595;28;20120;-68
2023/09/16 02:04:38;;;;;;;7.28;6.50;;;18.20;96.80;;;;;;5052927;28;20065;-68
2023/09/16 02:07:04;;;;;;;7.25;6.55;;;18.20;96.60;;;;;;5051678;28;20063;-68
2023/09/16 02:09:30;;;;;;;7.88;6.93;;;18.20;96.80;;;;;;5053088;28;20060;-68
2023/09/16 02:11:55;;;;;;;7.45;6.38;;;18.20;96.80;;;;;;5052829;28;20433;-67
2023/09/16 02:14:21;;;;;;;8.48;6.75;;;18.20;96.50;;;;;;5052438;28;20064;-67
2023/09/16 02:16:46;;;;;;;8.18;7.32;;;18.10;96.70;;;;;;5052774;28;20051;-68
2023/09/16 02:19:12;;;;;;;8.55;7.10;;;18.10;96.80;;;;;;5052244;28;20032;-68
2023/09/16 02:21:38;;;;;;;7.40;6.40;;;18.10;96.80;;;;;;5052982;28;20060;-68
2023/09/16 02:24:04;;;;;;;8.68;6.78;;;18.10;97.10;;;;;;5052270;28;20098;-68
2023/09/16 02:26:30;;;;;;;10.27;5.95;;;18.10;96.90;;;;;;5052442;28;20024;-68
2023/09/16 02:28:55;;;;;;;9.82;6.75;;;18.00;97.30;;;;;;5052243;28;20025;-67
2023/09/16 02:31:26;;;;;;;7.85;6.75;;;18.00;97.00;;;;;;5046414;28;20017;-68
2023/09/16 02:33:58;;;;;;;10.10;6.68;;;18.00;97.00;;;;;;5032532;28;20033;-68
2023/09/16 02:36:24;;;;;;;10.23;6.35;;;18.00;96.90;;;;;;5032853;28;20033;-67
2023/09/16 02:38:49;;;;;;;6.80;6.10;;;18.00;97.10;;;;;;5032576;28;20033;-68
2023/09/16 02:41:17;;;;;;;7.38;6.43;;;18.00;96.90;;;;;;5032262;28;20149;-68
2023/09/16 02:43:44;;;;;;;7.53;5.88;;;17.90;96.70;;;;;;5032528;28;20382;-68
2023/09/16 02:46:10;;;;;;;7.65;6.75;;;18.00;96.90;;;;;;5032150;28;20021;-69
2023/09/16 02:48:35;;;;;;;8.55;6.90;;;17.90;96.90;;;;;;5032654;28;20036;-68
2023/09/16 02:51:03;;;;;;;7.47;6.43;;;17.90;97.10;;;;;;5032495;28;20021;-69
2023/09/16 02:53:29;;;;;;;7.40;6.35;;;17.80;97.20;;;;;;5032638;28;20038;-68
2023/09/16 02:55:55;;;;;;;7.10;6.32;;;17.80;97.50;;;;;;5032220;28;20017;-68
2023/09/16 02:58:21;;;;;;;8.35;6.05;;;17.80;97.90;;;;;;5032086;28;20113;-68
2023/09/16 03:00:47;;;;;;;8.45;6.28;;;17.80;97.90;;;;;;5032372;28;20068;-69
2023/09/16 03:03:13;;;;;;;9.18;6.65;;;17.80;98.00;;;;;;5031659;28;20454;-68
2023/09/16 03:05:40;;;;;;;10.60;6.25;;;17.80;97.80;;;;;;5032196;28;20041;-67
2023/09/16 03:08:06;;;;;;;10.82;6.10;;;17.80;97.70;;;;;;5031834;28;20033;-68
2023/09/16 03:10:33;;;;;;;7.97;6.05;;;17.80;98.00;;;;;;5032012;28;20033;-68
2023/09/16 03:12:59;;;;;;;7.57;6.15;;;17.70;98.30;;;;;;5032183;28;20036;-66
2023/09/16 03:15:24;;;;;;;11.13;6.32;;;17.70;98.60;;;;;;5031870;28;20060;-69
2023/09/16 03:17:50;;;;;;;10.55;6.38;;;17.70;98.60;;;;;;5033973;28;20466;-68
2023/09/16 03:20:16;;;;;;;8.38;6.63;;;17.70;98.70;;;;;;5035616;28;20055;-69
2023/09/16 03:22:41;;;;;;;10.00;7.20;;;17.70;99.10;;;;;;5036031;28;20470;-69
2023/09/16 03:25:07;;;;;;;11.48;7.43;;;17.60;99.50;;;;;;5035315;28;20018;-69
2023/09/16 03:27:33;;;;;;;6.95;6.25;;;17.60;99.60;;;;;;5035735;28;20057;-69
2023/09/16 03:29:58;;;;;;;9.95;6.68;;;17.60;99.70;;;;;;5035785;28;20097;-69
2023/09/16 03:32:27;;;;;;;7.32;6.13;;;17.60;99.70;;;;;;5035654;28;20029;-69
2023/09/16 03:34:53;;;;;;;9.02;6.88;;;17.60;99.90;;;;;;5035898;28;20037;-69
2023/09/16 03:37:18;;;;;;;9.98;7.20;;;17.60;99.90;;;;;;5035282;28;20029;-69
2023/09/16 03:39:44;;;;;;;6.53;5.88;;;17.60;99.90;;;;;;5035982;28;20047;-69
2023/09/16 03:42:10;;;;;;;10.43;6.68;;;17.60;99.90;;;;;;5034959;28;20025;-69
2023/09/16 03:44:36;;;;;;;8.68;6.70;;;17.50;99.90;;;;;;5035740;28;20501;-69
2023/09/16 03:47:02;;;;;;;8.05;6.95;;;17.60;99.90;;;;;;5037758;28;20524;-69
2023/09/16 03:49:28;;;;;;;7.60;6.60;;;17.50;99.90;;;;;;5034957;28;20128;-69
2023/09/16 03:51:54;;;;;;;8.07;7.22;;;17.50;99.90;;;;;;5035469;28;20406;-67
2023/09/16 03:54:20;;;;;;;9.65;7.47;;;17.50;99.90;;;;;;5034867;28;20120;-68
2023/09/16 03:56:45;;;;;;;7.47;6.75;;;17.40;99.90;;;;;;5043555;28;20185;-69
2023/09/16 03:59:11;;;;;;;7.18;6.47;;;17.40;99.90;;;;;;5055151;28;20029;-69
2023/09/16 04:01:37;;;;;;;8.35;7.15;;;17.40;99.90;;;;;;5055136;28;20028;-68
2023/09/16 04:04:03;;;;;;;8.98;7.25;;;17.40;99.90;;;;;;5055111;28;20098;-68
2023/09/16 04:06:28;;;;;;;9.40;7.43;;;17.40;99.90;;;;;;5054583;28;20029;-67
2023/09/16 04:08:54;;;;;;;9.02;7.30;;;17.30;99.90;;;;;;5054938;28;20021;-67
2023/09/16 04:11:20;;;;;;;10.23;6.95;;;17.30;99.90;;;;;;5054515;28;20021;-68
2023/09/16 04:13:46;;;;;;;9.25;7.10;;;17.30;99.90;;;;;;5054599;28;20044;-67
2023/09/16 04:16:11;;;;;;;10.95;7.60;;;17.30;99.90;;;;;;5054085;28;20021;-68
2023/09/16 04:18:37;;;;;;;9.45;7.20;;;17.30;99.90;;;;;;5054897;28;20038;-67
2023/09/16 04:21:03;;;;;;;10.73;6.80;;;17.30;99.90;;;;;;5054563;28;20078;-67
2023/09/16 04:23:29;;;;;;;9.55;6.65;;;17.30;99.90;;;;;;5036668;28;20432;-67
2023/09/16 04:25:56;;;;;;;9.48;7.68;;;17.30;99.90;;;;;;5054849;28;20110;-68
2023/09/16 04:28:22;;;;;;;9.32;6.97;;;17.30;99.90;;;;;;5053424;28;20105;-68
2023/09/16 04:30:49;;;;;;;11.20;8.02;;;17.30;99.90;;;;;;5054384;28;20032;-68
2023/09/16 04:33:15;;;;;;;8.45;6.97;;;17.20;99.90;;;;;;5054105;28;20079;-68
2023/09/16 04:35:43;;;;;;;8.27;7.07;;;17.30;99.90;;;;;;5054235;28;20079;-69
2023/09/16 04:38:10;;;;;;;8.02;7.03;;;17.30;99.90;;;;;;5052994;28;20025;-67
2023/09/16 04:40:35;;;;;;;8.45;6.70;;;17.30;99.90;;;;;;5052520;28;20025;-69
2023/09/16 04:43:03;;;;;;;10.05;6.75;;;17.30;99.90;;;;;;5054513;28;20029;-67
2023/09/16 04:45:29;;;;;;;6.38;5.63;;;17.30;99.90;;;;;;5053861;28;20040;-68
2023/09/16 04:47:56;;;;;;;8.02;6.43;;;17.30;99.90;;;;;;5054291;28;20021;-67
2023/09/16 04:50:22;;;;;;;7.20;5.95;;;17.30;99.90;;;;;;5053793;28;20449;-68
2023/09/16 04:52:48;;;;;;;8.05;6.75;;;17.30;99.90;;;;;;5054256;28;20082;-68
2023/09/16 04:55:14;;;;;;;9.75;7.25;;;17.30;99.90;;;;;;5053744;28;20065;-69
2023/09/16 04:57:40;;;;;;;7.47;6.10;;;17.30;99.90;;;;;;5053854;28;20060;-69
2023/09/16 05:00:07;;;;;;;9.85;5.80;;;17.30;99.90;;;;;;5053864;28;20436;-68
2023/09/16 05:02:33;;;;;;;8.40;6.40;;;17.30;99.90;;;;;;5053643;28;20406;-68
2023/09/16 05:05:00;;;;;;;8.32;6.65;;;17.20;99.90;;;;;;5053915;28;20036;-67
2023/09/16 05:07:27;;;;;;;7.00;6.30;;;17.30;99.90;;;;;;5053444;28;20151;-67
2023/09/16 05:09:53;;;;;;;10.00;6.00;;;17.30;99.90;;;;;;5053845;28;20029;-67
2023/09/16 05:12:19;;;;;;;8.93;6.53;;;17.30;99.90;;;;;;5053134;28;20025;-67
2023/09/16 05:14:46;;;;;;;7.10;6.38;;;17.30;99.90;;;;;;5053910;28;20116;-67
2023/09/16 05:17:12;;;;;;;10.27;6.57;;;17.30;99.90;;;;;;5053283;28;20036;-68
2023/09/16 05:19:37;;;;;;;9.10;6.45;;;17.20;99.90;;;;;;5053602;28;20029;-69
2023/09/16 05:22:04;;;;;;;8.77;6.68;;;17.30;99.90;;;;;;5053684;28;20462;-69
2023/09/16 05:24:33;;;;;;;8.07;6.40;;;17.30;99.90;;;;;;5053159;28;20029;-68
2023/09/16 05:26:59;;;;;;;8.93;6.40;;;17.30;99.90;;;;;;5053551;28;20469;-68
2023/09/16 05:29:25;;;;;;;9.50;7.43;;;17.30;99.90;;;;;;5052951;28;20021;-67
2023/09/16 05:31:51;;;;;;;11.02;6.28;;;17.30;99.90;;;;;;5053055;28;20025;-68
2023/09/16 05:34:17;;;;;;;8.65;6.18;;;17.40;99.90;;;;;;5053123;28;20424;-68
2023/09/16 05:36:42;;;;;;;8.25;6.60;;;17.40;99.90;;;;;;5053327;28;20027;-68
2023/09/16 05:39:08;;;;;;;7.88;6.50;;;17.40;99.90;;;;;;5053251;28;20362;-68
2023/09/16 05:41:35;;;;;;;7.82;5.90;;;17.50;99.90;;;;;;5052709;28;20074;-69
2023/09/16 05:44:01;;;;;;;6.50;5.68;;;17.50;99.90;;;;;;5053006;28;20032;-68
2023/09/16 05:46:27;;;;;;;9.43;5.97;;;17.60;99.90;;;;;;5052920;28;20074;-69
2023/09/16 05:49:06;;;;;;;9.70;6.22;;;17.60;99.90;;;;;;5049469;28;20029;-68
2023/09/16 05:51:34;;;;;;;6.57;5.03;;;17.60;99.90;;;;;;5032945;28;20017;-68
2023/09/16 05:54:00;;;;;;;10.15;5.75;;;17.70;99.90;;;;;;5033092;28;20049;-69
2023/09/16 05:56:27;;;;;;;12.20;5.93;;;17.70;99.90;;;;;;5032398;28;20512;-69
2023/09/16 05:58:52;;;;;;;7.05;5.93;;;17.80;99.90;;;;;;5032777;28;20502;-68
2023/09/16 06:01:18;;;;;;;6.75;5.28;;;17.80;99.90;;;;;;5032391;28;20060;-68
2023/09/16 06:03:43;;;;;;;8.35;5.63;;;17.90;99.90;;;;;;5015284;28;20029;-67
2023/09/16 06:06:09;;;;;;;5.32;4.82;;;17.90;99.90;;;;;;5032926;28;20026;-68
2023/09/16 06:08:35;;;;;;;7.15;5.53;;;18.00;99.90;;;;;;5032526;28;20112;-68
2023/09/16 06:11:00;;;;;;;5.18;4.65;;;18.00;99.90;;;;;;5032900;28;20071;-69
2023/09/16 06:13:26;;;;;;;6.90;4.63;;;18.10;99.90;;;;;;5032638;28;20042;-69
2023/09/16 06:15:54;;;;;;;6.55;5.20;;;18.10;99.90;;;;;;5032850;28;20027;-68
2023/09/16 06:18:19;;;;;;;6.13;4.82;;;18.20;99.90;;;;;;5032488;28;20049;-69
2023/09/16 06:20:45;;;;;;;6.45;4.90;;;18.30;99.90;;;;;;5032807;28;20021;-70
2023/09/16 06:23:11;;;;;;;8.40;4.90;;;18.30;99.90;;;;;;5032756;28;20025;-69
2023/09/16 06:25:37;;;;;;;6.53;4.78;;;18.40;99.90;;;;;;5032247;28;20434;-69
2023/09/16 06:28:04;;;;;;;7.60;4.65;;;18.40;99.90;;;;;;5032674;28;20097;-69
2023/09/16 06:30:30;;;;;;;11.45;4.95;;;18.50;99.90;;;;;;5014951;28;20103;-69
2023/09/16 06:32:57;;;;;;;6.57;4.50;;;18.60;99.90;;;;;;5050128;28;20025;-67
2023/09/16 06:35:23;;;;;;;7.45;4.10;;;18.60;99.90;;;;;;5052002;28;20111;-70
2023/09/16 06:37:50;;;;;;;5.57;4.10;;;18.70;99.90;;;;;;5052636;28;20426;-68
2023/09/16 06:40:17;;;;;;;5.70;4.30;;;18.80;99.90;;;;;;5052399;28;20032;-68
2023/09/16 06:42:43;;;;;;;5.20;4.70;;;18.90;99.90;;;;;;5052644;28;20477;-70
2023/09/16 06:45:09;;;;;;;4.80;4.20;;;19.00;99.60;;;;;;5052507;28;20040;-69
2023/09/16 06:47:35;;;;;;;7.28;4.63;;;19.10;99.30;;;;;;5052010;28;20130;-68
2023/09/16 06:50:01;;;;;;;11.00;4.32;;;19.30;98.70;;;;;;5052381;28;20024;-68
2023/09/16 06:52:28;;;;;;;5.95;4.18;;;19.50;98.20;;;;;;5053466;28;20102;-68
2023/09/16 06:54:54;;;;;;;6.13;4.03;;;19.70;97.20;;;;;;5056119;28;20409;-68
2023/09/16 06:57:19;;;;;;;5.88;4.13;;;19.90;96.60;;;;;;5055943;28;20045;-69
2023/09/16 06:59:49;;;;;;;6.30;4.15;;;20.20;95.30;;;;;;5056671;28;20029;-68
2023/09/16 07:02:15;;;;;;;5.68;3.53;;;20.60;94.40;;;;;;5056267;28;20025;-68
2023/09/16 07:04:40;;;;;;;7.30;3.60;;;21.00;93.10;;;;;;5055786;28;20040;-68
2023/09/16 07:07:08;;;;;;;5.13;3.60;;;21.40;92.40;;;;;;5038214;28;20026;-69
2023/09/16 07:09:33;;;;;;;7.13;3.95;;;21.90;90.70;;;;;;5037895;28;20078;-68
2023/09/16 07:11:59;;;;;;;4.95;3.22;;;22.30;90.00;;;;;;5055943;28;20029;-68
2023/09/16 07:14:24;;;;;;;3.65;3.10;;;23.10;86.60;;;;;;5055546;28;20029;-69
2023/09/16 07:16:50;;;;;;;5.35;3.13;;;24.10;82.10;;;;;;5055888;28;20485;-68
2023/09/16 07:19:16;;;;;;;4.32;3.22;;;25.30;75.40;;;;;;5056087;28;20378;-69
2023/09/16 07:21:43;;;;;;;8.40;3.03;;;26.20;73.00;;;;;;5055457;28;20017;-69
2023/09/16 07:24:09;;;;;;;3.97;3.15;;;27.20;67.20;;;;;;5055893;28;20118;-68
2023/09/16 07:26:35;;;;;;;2.92;2.65;;;27.90;62.80;;;;;;5055446;28;20025;-69
2023/09/16 07:29:01;;;;;;;4.93;2.60;;;28.60;61.00;;;;;;5056085;28;20458;-69
2023/09/16 07:31:26;;;;;;;6.35;3.03;;;29.30;58.70;;;;;;5037513;28;20044;-69
2023/09/16 07:33:52;;;;;;;2.72;2.45;;;29.90;56.30;;;;;;5055713;28;20087;-69
2023/09/16 07:36:18;;;;;;;4.35;2.65;;;30.30;54.80;;;;;;5055812;28;20052;-69
2023/09/16 07:38:44;;;;;;;3.33;2.13;;;30.70;52.90;;;;;;5055255;28;20035;-69
2023/09/16 07:41:10;;;;;;;7.20;2.75;;;31.10;52.10;;;;;;5055230;28;20033;-67
2023/09/16 07:43:36;;;;;;;4.22;2.10;;;31.60;51.00;;;;;;5055055;28;20090;-68
2023/09/16 07:46:02;;;;;;;3.97;2.22;;;32.00;49.20;;;;;;5055434;28;20029;-67
2023/09/16 07:48:27;;;;;;;4.65;2.08;;;31.90;49.00;;;;;;5055082;28;20017;-68
2023/09/16 07:50:54;;;;;;;2.95;1.98;;;32.40;47.90;;;;;;5055244;28;20029;-67
2023/09/16 07:53:20;;;;;;;4.10;1.80;;;32.90;47.50;;;;;;5051729;28;20075;-68
2023/09/16 07:55:46;;;;;;;2.97;2.22;;;33.00;45.90;;;;;;5054685;28;20390;-68
2023/09/16 07:58:12;;;;;;;2.42;1.90;;;33.30;45.70;;;;;;5040706;28;20054;-69
2023/09/16 08:00:37;;;;;;;6.93;1.95;;;33.40;44.30;;;;;;5034559;28;20029;-70
2023/09/16 08:03:03;;;;;;;4.20;1.70;;;33.40;43.90;;;;;;5034821;28;20029;-69
2023/09/16 08:05:29;;;;;;;4.03;2.25;;;33.30;44.20;;;;;;5017355;28;20029;-68
2023/09/16 08:07:55;;;;;;;4.07;1.90;;;33.30;44.10;;;;;;5034824;28;20461;-69
2023/09/16 08:10:20;;;;;;;2.45;2.15;;;33.40;44.00;;;;;;5035002;28;20030;-69
2023/09/16 08:12:46;;;;;;;3.67;2.13;;;33.50;43.90;;;;;;5034583;28;20032;-68
2023/09/16 08:15:11;;;;;;;3.70;1.83;;;33.50;43.30;;;;;;5034907;28;20050;-69
2023/09/16 08:17:38;;;;;;;3.17;1.90;;;33.50;43.40;;;;;;5034223;28;20057;-69
2023/09/16 08:20:05;;;;;;;3.70;2.00;;;33.70;43.30;;;;;;5034868;28;20041;-69
2023/09/16 08:22:31;;;;;;;7.93;1.92;;;33.50;43.00;;;;;;5034142;28;20036;-69
2023/09/16 08:24:56;;;;;;;3.55;2.05;;;33.30;43.50;;;;;;5034806;28;20448;-69
2023/09/16 08:27:22;;;;;;;9.55;2.40;;;32.70;43.50;;;;;;5034998;28;20022;-68
2023/09/16 08:29:49;;;;;;;8.82;2.30;;;32.00;44.60;;;;;;5034396;28;20466;-69
2023/09/16 08:32:15;;;;;;;5.63;2.40;;;31.00;46.30;;;;;;5034638;28;20041;-68
2023/09/16 08:34:41;;;;;;;2.90;1.98;;;30.00;48.10;;;;;;5033855;28;20589;-69
2023/09/16 08:37:07;;;;;;;2.53;2.05;;;29.30;49.60;;;;;;5034594;28;20060;-68
2023/09/16 08:39:32;;;;;;;3.65;2.03;;;28.70;50.90;;;;;;5035773;28;20355;-68
2023/09/16 08:42:11;;;;;;;2.95;2.28;;;28.20;52.20;;;;;;5036354;28;20388;-68
2023/09/16 08:44:41;;;;;;;3.25;1.80;;;27.90;53.00;;;;;;5053748;28;20039;-68
2023/09/16 08:47:14;;;;;;;5.40;2.40;;;27.60;53.90;;;;;;5054564;28;20051;-68
2023/09/16 08:49:50;;;;;;;3.80;1.95;;;27.30;54.60;;;;;;5053594;28;20040;-69
2023/09/16 08:52:17;;;;;;;3.65;2.15;;;27.20;54.90;;;;;;5037279;28;20072;-68
2023/09/16 08:54:47;;;;;;;5.82;2.17;;;27.00;55.60;;;;;;5053317;28;20541;-68
2023/09/16 08:57:14;;;;;;;3.45;2.00;;;26.80;56.10;;;;;;5053648;28;20053;-68
2023/09/16 08:59:40;;;;;;;3.55;2.13;;;26.70;56.60;;;;;;5053875;28;20071;-68
2023/09/16 09:02:08;;;;;;;3.25;1.88;;;26.70;56.70;;;;;;5054271;28;20036;-68
2023/09/16 09:04:34;;;;;;;2.97;2.10;;;26.50;57.00;;;;;;5053354;28;20025;-68
2023/09/16 09:07:02;;;;;;;3.90;1.80;;;26.40;57.50;;;;;;5053853;28;20083;-68
2023/09/16 09:09:28;;;;;;;4.78;2.58;;;26.40;57.70;;;;;;5053066;28;20036;-70
2023/09/16 09:11:57;;;;;;;2.47;2.10;;;26.50;57.20;;;;;;5053906;28;20025;-68
2023/09/16 09:14:23;;;;;;;3.42;2.17;;;26.50;57.50;;;;;;5052768;28;20028;-68
2023/09/16 09:16:51;;;;;;;6.85;1.88;;;26.50;57.20;;;;;;5052908;28;20448;-69
2023/09/16 09:19:19;;;;;;;4.50;2.00;;;26.50;57.90;;;;;;5053539;28;20090;-68
2023/09/16 09:21:46;;;;;;;2.47;2.03;;;26.60;57.70;;;;;;5052925;28;20071;-68
2023/09/16 09:24:12;;;;;;;4.60;1.92;;;26.60;57.60;;;;;;5053884;28;20087;-68
2023/09/16 09:26:37;;;;;;;4.68;2.20;;;26.60;57.90;;;;;;5034994;28;20481;-69
2023/09/16 09:29:09;;;;;;;4.18;1.65;;;26.60;57.70;;;;;;5053263;28;20453;-68
2023/09/16 09:31:34;;;;;;;5.13;1.90;;;26.50;57.80;;;;;;5053012;28;20489;-69
2023/09/16 09:34:00;;;;;;;3.67;2.33;;;26.50;58.40;;;;;;5053423;28;20072;-69
2023/09/16 09:36:27;;;;;;;7.55;1.90;;;26.50;58.30;;;;;;5053126;28;20037;-69
2023/09/16 09:38:56;;;;;;;3.28;1.60;;;26.40;58.30;;;;;;5052748;28;20074;-68
2023/09/16 09:41:22;;;;;;;2.75;1.80;;;26.40;58.60;;;;;;5053034;28;20028;-68
2023/09/16 09:43:52;;;;;;;5.97;1.98;;;26.40;58.70;;;;;;5052691;28;20475;-68
2023/09/16 09:46:18;;;;;;;8.10;1.80;;;26.40;58.60;;;;;;5053076;28;20025;-68
2023/09/16 09:48:44;;;;;;;1.83;1.63;;;26.50;58.50;;;;;;5052728;28;20033;-68
2023/09/16 09:51:09;;;;;;;3.13;1.70;;;26.50;57.90;;;;;;5052835;28;20029;-68
2023/09/16 09:53:36;;;;;;;2.75;1.63;;;26.50;58.10;;;;;;5052276;28;20041;-68
2023/09/16 09:56:02;;;;;;;8.13;1.60;;;26.50;58.20;;;;;;5043936;28;20327;-68
2023/09/16 09:58:29;;;;;;;9.68;2.28;;;26.50;57.90;;;;;;5035165;28;20038;-68
2023/09/16 10:00:55;;;;;;;5.03;2.15;;;26.50;57.80;;;;;;5032699;28;20180;-69
2023/09/16 10:03:22;;;;;;;5.22;1.67;;;26.50;58.30;;;;;;5032965;28;20025;-69
2023/09/16 10:05:48;;;;;;;5.68;1.80;;;26.50;58.10;;;;;;5032522;28;20026;-68
2023/09/16 10:08:14;;;;;;;5.60;1.75;;;26.50;58.30;;;;;;5032881;28;20029;-68
2023/09/16 10:10:40;;;;;;;1.63;1.30;;;26.50;58.10;;;;;;5032557;28;20029;-68
2023/09/16 10:13:07;;;;;;;7.20;1.85;;;26.50;58.10;;;;;;5033066;28;20030;-68
2023/09/16 10:15:37;;;;;;;3.70;1.80;;;26.60;58.60;;;;;;5032286;28;20079;-69
2023/09/16 10:18:03;;;;;;;5.85;1.98;;;26.70;58.40;;;;;;5032495;28;20021;-68
2023/09/16 10:20:32;;;;;;;6.68;1.80;;;26.70;58.00;;;;;;5032580;28;20044;-69
2023/09/16 10:22:59;;;;;;;3.08;1.42;;;26.70;58.10;;;;;;5032449;28;20445;-68
2023/09/16 10:25:28;;;;;;;5.22;1.80;;;26.80;57.70;;;;;;5032589;28;20040;-69
2023/09/16 10:28:03;;;;;;;6.30;1.90;;;26.90;57.70;;;;;;5031570;28;20033;-69
2023/09/16 10:30:32;;;;;;;6.28;1.52;;;26.90;57.50;;;;;;5032753;28;20034;-69
2023/09/16 10:33:06;;;;;;;5.10;1.70;;;26.90;57.20;;;;;;5032565;28;20083;-68
2023/09/16 10:35:33;;;;;;;6.35;1.80;;;26.80;56.30;;;;;;5032596;28;20032;-69
2023/09/16 10:38:02;;;;;;;4.85;1.80;;;26.80;57.20;;;;;;5032872;28;20112;-69
2023/09/16 10:40:29;;;;;;;3.22;1.90;;;26.80;57.00;;;;;;5033715;28;20065;-68
2023/09/16 10:42:57;;;;;;;3.30;1.63;;;26.80;57.20;;;;;;5032054;28;20029;-68
2023/09/16 10:45:24;;;;;;;6.40;1.60;;;26.80;57.40;;;;;;5032200;28;20091;-68
2023/09/16 10:47:50;;;;;;;5.10;1.70;;;26.80;57.80;;;;;;5031771;28;20068;-68
2023/09/16 10:50:16;;;;;;;4.78;1.80;;;26.90;57.40;;;;;;5031842;28;20053;-68
2023/09/16 10:52:51;;;;;;;6.38;2.30;;;26.90;57.10;;;;;;5031206;28;20033;-69
2023/09/16 10:55:38;;;;;;;5.18;1.88;;;27.00;56.20;;;;;;5031268;28;20041;-68
2023/09/16 10:58:14;;;;;;;8.63;1.63;;;27.10;55.70;;;;;;5032037;28;20056;-68
2023/09/16 11:00:47;;;;;;;4.50;1.75;;;27.10;55.90;;;;;;5031917;28;20064;-68
2023/09/16 11:03:14;;;;;;;4.00;1.83;;;27.20;55.70;;;;;;5031993;28;20025;-69
2023/09/16 11:05:40;;;;;;;5.85;1.50;;;27.10;55.90;;;;;;5031774;28;20033;-69
2023/09/16 11:08:07;;;;;;;3.70;1.38;;;27.10;56.00;;;;;;5031645;28;20052;-69
2023/09/16 11:10:33;;;;;;;1.98;1.42;;;27.20;56.00;;;;;;5014579;28;20029;-68
2023/09/16 11:12:59;;;;;;;3.97;1.38;;;27.20;56.00;;;;;;5031584;28;20056;-69
2023/09/16 11:15:32;;;;;;;6.75;2.03;;;27.20;55.80;;;;;;5032113;28;20052;-68
2023/09/16 11:18:02;;;;;;;4.68;1.60;;;27.20;54.50;;;;;;5031837;28;20048;-67
2023/09/16 11:20:32;;;;;;;3.63;1.80;;;27.10;54.50;;;;;;5032062;28;20037;-68
2023/09/16 11:23:09;;;;;;;4.05;1.60;;;27.20;55.50;;;;;;5031693;28;20118;-68
2023/09/16 11:25:41;;;;;;;4.78;1.58;;;27.20;55.20;;;;;;5032095;28;20033;-68
2023/09/16 11:28:12;;;;;;;2.80;1.40;;;27.20;54.90;;;;;;5032144;28;20029;-68
2023/09/16 11:30:38;;;;;;;5.70;1.73;;;27.20;54.50;;;;;;5031786;28;20038;-70
2023/09/16 11:33:08;;;;;;;5.03;1.50;;;27.20;55.20;;;;;;5032029;28;20111;-69
2023/09/16 11:35:37;;;;;;;4.10;1.73;;;27.10;54.90;;;;;;5031539;28;20118;-68
2023/09/16 11:38:03;;;;;;;1.80;1.70;;;27.20;55.40;;;;;;5032474;28;20032;-69
2023/09/16 11:40:31;;;;;;;3.75;1.40;;;27.10;54.10;;;;;;5035670;28;20029;-68
2023/09/16 11:42:58;;;;;;;3.85;1.40;;;27.10;54.00;;;;;;5035473;28;20072;-68
2023/09/16 11:45:25;;;;;;;2.85;1.65;;;27.10;54.20;;;;;;5035253;28;20386;-68
2023/09/16 11:47:51;;;;;;;2.50;1.55;;;27.20;53.80;;;;;;5034746;28;20032;-68
2023/09/16 11:50:24;;;;;;;4.65;1.50;;;27.10;53.00;;;;;;5035325;28;20061;-68
2023/09/16 11:52:50;;;;;;;3.67;1.20;;;27.20;52.50;;;;;;5017364;28;20429;-69
2023/09/16 11:55:17;;;;;;;3.92;1.60;;;27.20;52.50;;;;;;5042944;28;20037;-68
2023/09/16 11:57:44;;;;;;;7.85;1.42;;;27.20;51.80;;;;;;5054271;28;20080;-69
2023/09/16 12:00:11;;;;;;;8.70;1.60;;;27.30;51.90;;;;;;5039288;28;20052;-68
2023/09/16 12:02:36;;;;;;;4.38;1.80;;;27.30;52.20;;;;;;5035163;28;20034;-68
2023/09/16 12:05:03;;;;;;;1.95;1.30;;;27.40;52.40;;;;;;5034549;28;20470;-68
2023/09/16 12:07:32;;;;;;;3.97;1.45;;;27.30;50.90;;;;;;5034968;28;20104;-68
2023/09/16 12:09:59;;;;;;;2.92;1.50;;;27.20;51.00;;;;;;5034772;28;20086;-69
2023/09/16 12:12:25;;;;;;;2.42;1.48;;;27.10;51.50;;;;;;5034989;28;20030;-69
2023/09/16 12:14:52;;;;;;;1.85;1.38;;;26.90;52.00;;;;;;5034446;28;20489;-69
2023/09/16 12:17:18;;;;;;;2.45;1.45;;;26.80;52.50;;;;;;5035126;28;20458;-68
2023/09/16 12:19:54;;;;;;;1.85;1.20;;;26.80;52.90;;;;;;5034359;28;20355;-69
2023/09/16 12:22:21;;;;;;;3.10;1.20;;;26.70;52.80;;;;;;5034791;28;20164;-69
2023/09/16 12:24:47;;;;;;;7.18;1.67;;;26.60;52.70;;;;;;5034199;28;20071;-69
2023/09/16 12:27:13;;;;;;;3.45;1.40;;;26.50;52.80;;;;;;5034382;28;20037;-68
2023/09/16 12:29:39;;;;;;;3.80;1.50;;;26.50;52.20;;;;;;5034615;28;20033;-69
2023/09/16 12:32:09;;;;;;;2.13;1.50;;;26.40;52.50;;;;;;5034301;28;20029;-69
2023/09/16 12:34:35;;;;;;;2.50;1.60;;;26.40;52.90;;;;;;5016654;28;20382;-68
2023/09/16 12:37:02;;;;;;;3.65;1.25;;;26.40;53.30;;;;;;5034134;28;20033;-68
2023/09/16 12:39:28;;;;;;;2.72;1.73;;;26.40;53.60;;;;;;5034362;28;20112;-69
2023/09/16 12:41:58;;;;;;;2.80;1.40;;;26.40;53.50;;;;;;5033829;28;20382;-68
2023/09/16 12:44:24;;;;;;;4.32;1.52;;;26.40;53.90;;;;;;5033997;28;20378;-69